Latest Weather Observations for Longerenong

IDV60801

Issued at 11:05 pm EST Saturday 23 August 2014 (issued every 30 minutes, with the page automatically refreshed every 10 minutes)

About weather observations | Map of weather stations | Latest weather observations for VIC | Other Formats
Station Details ID: 079028 Name: LONGERENONG Lat: -36.67 Lon: 142.30 Height: 133.0 m
Data from the previous 72 hours. | See also: Recent months at Longerenong
Date/Time
EST
Temp
°C
App
Temp
°C
Dew
Point
Rel
Hum
%
Delta-T
°C
Wind Press
QNH
hPa
Press
MSL
hPa
Rain
since 9 am
mm
Dir
 
Spd
km/h
Gust
km/h
Spd
kts
Gust
kts
23/11:00pm 6.2 3.7 4.8 91 0.6 NW 7 7 4 4 - - 0.0
23/10:30pm 5.8 2.9 4.4 91 0.6 NNW 9 9 5 5 - - 0.0
23/10:00pm 6.2 3.7 4.5 89 0.7 SW 7 9 4 5 - - 0.0
23/09:30pm 8.0 6.3 6.1 88 0.9 SW 4 6 2 3 - - 0.0
23/09:00pm 7.2 6.1 5.3 88 0.8 CALM 0 0 0 0 - - 0.0
23/08:30pm 8.7 7.8 6.2 84 1.2 CALM 0 0 0 0 - - 0.0
23/08:00pm 9.0 8.0 5.7 80 1.5 SW 0 0 0 0 - - 0.0
23/07:30pm 9.8 8.9 6.0 77 1.8 CALM 0 0 0 0 - - 0.0
23/07:00pm 10.3 9.0 5.9 74 2.0 SW 2 2 1 1 - - 0.0
23/06:30pm 10.7 8.5 6.3 74 2.1 SW 7 9 4 5 - - 0.0
23/06:00pm 11.2 8.3 6.3 72 2.3 WSW 11 19 6 10 - - 0.0
23/05:30pm 11.6 6.9 6.1 69 2.6 W 20 28 11 15 - - 0.0
23/05:00pm 12.3 6.5 6.1 66 2.9 W 26 35 14 19 - - 0.0
23/04:30pm 12.9 5.5 6.9 67 2.9 WSW 35 50 19 27 - - 0.0
23/04:19pm 14.3 8.4 7.4 63 3.4 W 28 41 15 22 - - 0.0
23/04:16pm 16.0 8.1 6.4 53 4.7 WNW 37 50 20 27 - - 0.0
23/04:00pm 17.9 13.4 6.1 46 5.8 N 19 26 10 14 - - 0.0
23/03:30pm 18.5 13.5 6.4 45 6.0 N 22 32 12 17 - - 0.0
23/03:00pm 19.1 12.6 6.6 44 6.3 N 30 41 16 22 - - 0.0
23/02:30pm 19.2 12.2 6.7 44 6.3 N 33 46 18 25 - - 0.0
23/02:21pm 19.2 13.2 7.0 45 6.2 N 28 46 15 25 - - 0.0
23/02:00pm 18.9 12.0 6.4 44 6.3 N 32 43 17 23 - - 0.0
23/01:30pm 19.1 13.2 7.5 47 5.9 N 28 43 15 23 - - 0.0
23/01:00pm 19.3 13.4 7.4 46 6.1 N 28 44 15 24 - - 0.0
23/12:30pm 18.9 14.0 8.3 50 5.5 N 24 37 13 20 - - 0.0
23/12:00pm 17.9 14.1 9.0 56 4.7 N 19 28 10 15 - - 0.0
23/11:30am 16.7 13.2 8.9 60 4.0 NNE 17 28 9 15 - - 0.0
23/11:00am 15.8 12.5 9.5 66 3.3 NNE 17 28 9 15 - - 0.0
23/10:30am 13.9 11.3 9.3 74 2.4 NNE 13 24 7 13 - - 0.0
23/10:00am 11.6 8.3 8.1 79 1.7 NNE 15 26 8 14 - - 0.0
23/09:30am 10.6 7.2 7.7 82 1.4 NE 15 26 8 14 - - 0.0
23/09:00am 9.6 6.8 7.0 84 1.2 NE 11 19 6 10 - - 0.0
23/08:30am 8.0 5.1 6.3 89 0.8 NE 11 19 6 10 - - 0.0
23/08:00am 7.0 3.5 5.5 90 0.7 NE 13 20 7 11 - - 0.0
23/07:30am 5.8 2.5 4.4 91 0.6 NE 11 17 6 9 - - 0.0
23/07:00am 5.6 2.6 4.2 91 0.6 NE 9 15 5 8 - - 0.0
23/06:30am 5.7 2.7 4.3 91 0.6 ENE 9 13 5 7 - - 0.0
23/06:00am 5.6 2.2 4.1 90 0.6 ENE 11 15 6 8 - - 0.0
23/05:30am 6.2 3.3 4.5 89 0.7 ENE 9 15 5 8 - - 0.0
23/05:00am 6.1 2.8 4.4 89 0.7 ENE 11 17 6 9 - - 0.0
23/04:30am 6.6 3.3 4.8 88 0.8 ENE 11 17 6 9 - - 0.0
23/04:00am 6.6 3.7 4.6 87 0.9 ENE 9 15 5 8 - - 0.0
23/03:30am 6.9 3.6 4.7 86 1.0 ENE 11 19 6 10 - - 0.0
23/03:00am 7.2 3.6 4.9 85 1.0 ENE 13 19 7 10 - - 0.0
23/02:30am 6.8 3.1 4.5 85 1.0 ENE 13 17 7 9 - - 0.0
23/02:00am 6.9 3.6 4.4 84 1.1 ENE 11 15 6 8 - - 0.0
23/01:30am 7.5 4.2 4.6 82 1.3 ENE 11 17 6 9 - - 0.0
23/01:00am 7.6 4.3 4.7 82 1.3 ENE 11 15 6 8 - - 0.0
23/12:30am 7.7 4.4 4.8 82 1.3 ENE 11 19 6 10 - - 0.0
23/12:00am 7.9 4.7 5.0 82 1.3 ENE 11 19 6 10 - - 0.0
 
Date/Time
EST
Temp
°C
App
Temp
°C
Dew
Point
Rel
Hum
%
Delta-T
°C
Wind Press
QNH
hPa
Press
MSL
hPa
Rain
since 9 am
mm
Dir
 
Spd
km/h
Gust
km/h
Spd
kts
Gust
kts
22/11:30pm 7.7 4.8 4.8 82 1.3 ENE 9 15 5 8 - - 0.0
22/11:00pm 8.0 4.8 4.9 81 1.4 ENE 11 17 6 9 - - 0.0
22/10:30pm 8.0 4.7 4.8 80 1.4 ENE 11 17 6 9 - - 0.0
22/10:00pm 8.5 5.7 5.1 79 1.5 ENE 9 15 5 8 - - 0.0
22/09:30pm 8.9 6.1 5.1 77 1.7 ENE 9 13 5 7 - - 0.0
22/09:00pm 9.6 6.9 5.4 75 1.9 ENE 9 15 5 8 - - 0.0
22/08:30pm 10.2 7.5 5.6 73 2.1 ENE 9 15 5 8 - - 0.0
22/08:00pm 10.6 8.3 5.6 71 2.3 ENE 7 11 4 6 - - 0.0
22/07:30pm 11.4 8.8 5.9 69 2.6 ENE 9 17 5 9 - - 0.0
22/07:00pm 12.0 9.7 5.9 66 2.9 ENE 7 11 4 6 - - 0.0
22/06:30pm 13.2 10.6 6.1 62 3.4 ENE 9 11 5 6 - - 0.0
22/06:00pm 14.1 11.9 5.5 56 4.1 NE 6 9 3 5 - - 0.0
22/05:30pm 16.2 13.5 5.5 49 5.2 NE 9 15 5 8 - - 0.0
22/05:00pm 16.8 14.2 6.0 49 5.3 NNE 9 15 5 8 - - 0.0
22/04:30pm 17.8 13.8 5.1 43 6.1 NE 15 24 8 13 - - 0.0
22/04:00pm 18.2 14.8 5.8 44 6.1 NNE 13 20 7 11 - - 0.0
22/03:30pm 18.0 14.3 6.2 46 5.8 NNE 15 22 8 12 - - 0.0
22/03:00pm 17.7 13.7 5.0 43 6.1 NNE 15 22 8 12 - - 0.0
22/02:30pm 18.4 14.1 5.3 42 6.4 NNE 17 30 9 16 - - 0.0
22/02:00pm 18.1 14.4 6.3 46 5.9 NNE 15 26 8 14 - - 0.0
22/01:30pm 17.9 14.4 7.0 49 5.5 NE 15 24 8 13 - - 0.0
22/01:00pm 17.4 14.0 7.5 52 5.0 NE 15 28 8 15 - - 0.0
22/12:30pm 16.8 13.4 7.7 55 4.6 ENE 15 22 8 12 - - 0.0
22/12:00pm 16.1 12.3 7.6 57 4.3 ENE 17 24 9 13 - - 0.0
22/11:30am 15.8 12.9 8.1 60 3.9 NE 13 24 7 13 - - 0.0
22/11:00am 15.1 11.6 7.4 60 3.8 ENE 15 20 8 11 - - 0.0
22/10:30am 14.2 10.7 7.3 63 3.4 NE 15 22 8 12 - - 0.0
22/10:00am 13.6 10.5 7.2 65 3.1 NE 13 20 7 11 - - 0.0
22/09:30am 12.2 7.8 6.5 68 2.7 NE 19 28 10 15 - - 0.0
22/09:00am 11.9 7.9 6.6 70 2.5 NE 17 26 9 14 - - 0.0
22/08:30am 9.8 6.4 5.8 76 1.8 NE 13 20 7 11 - - 0.0
22/08:00am 9.4 7.1 5.8 78 1.7 NE 7 13 4 7 - - 0.0
22/07:30am 9.0 5.5 5.6 79 1.6 ENE 13 19 7 10 - - 0.0
22/07:00am 7.8 5.5 5.9 88 0.9 E 7 11 4 6 - - 0.0
22/06:30am 7.5 5.7 5.6 88 0.9 ENE 4 4 2 2 - - 0.0
22/06:00am 7.5 6.1 5.6 88 0.9 E 2 7 1 4 - - 0.0
22/05:30am 7.4 5.3 5.7 89 0.8 E 6 9 3 5 - - 0.0
22/05:00am 7.1 4.7 5.3 88 0.8 E 7 9 4 5 - - 0.0
22/04:30am 7.4 4.9 5.0 85 1.1 E 7 9 4 5 - - 0.0
22/04:00am 7.2 4.7 4.9 85 1.0 E 7 11 4 6 - - 0.0
22/03:30am 6.9 4.0 4.6 85 1.0 ENE 9 11 5 6 - - 0.0
22/03:00am 6.5 3.9 4.2 85 1.0 E 7 11 4 6 - - 0.0
22/02:30am 5.8 2.7 3.8 87 0.9 E 9 13 5 7 - - 0.0
22/02:00am 5.4 2.3 3.6 88 0.8 ESE 9 11 5 6 - - 0.0
22/01:30am 4.9 1.7 2.9 87 0.8 ESE 9 9 5 5 - - 0.0
22/01:00am 5.0 2.1 2.7 85 0.9 E 7 9 4 5 - - 0.0
22/12:30am 4.5 1.2 2.4 86 0.9 E 9 9 5 5 - - 0.0
22/12:00am 5.6 2.4 3.1 84 1.0 E 9 11 5 6 - - 0.0
 
Date/Time
EST
Temp
°C
App
Temp
°C
Dew
Point
Rel
Hum
%
Delta-T
°C
Wind Press
QNH
hPa
Press
MSL
hPa
Rain
since 9 am
mm
Dir
 
Spd
km/h
Gust
km/h
Spd
kts
Gust
kts
21/11:30pm 4.9 1.6 2.6 85 0.9 ENE 9 11 5 6 - - 0.0
21/11:00pm 4.5 1.7 2.2 85 0.9 E 6 7 3 4 - - 0.0
21/10:30pm 5.4 2.6 2.9 84 1.0 ENE 7 9 4 5 - - 0.0
21/10:00pm 6.3 3.6 3.5 82 1.2 ENE 7 7 4 4 - - 0.0
21/09:30pm 6.4 3.3 3.7 83 1.2 E 9 9 5 5 - - 0.0
21/09:00pm 6.7 4.0 3.5 80 1.4 E 7 7 4 4 - - 0.0
21/08:30pm 7.0 4.4 4.0 81 1.3 ENE 7 7 4 4 - - 0.0
21/08:00pm 6.3 4.5 3.5 82 1.2 E 2 4 1 2 - - 0.0
21/07:30pm 8.0 6.7 4.0 76 1.7 CALM 0 2 0 1 - - 0.0
21/07:00pm 10.2 8.2 4.6 68 2.5 N 4 6 2 3 - - 0.0
21/06:30pm 10.8 8.5 4.7 66 2.8 N 6 6 3 3 - - 0.0
21/06:00pm 11.1 8.8 5.0 66 2.8 N 6 7 3 4 - - 0.0
21/05:30pm 12.6 10.3 5.8 63 3.2 NNW 7 9 4 5 - - 0.0
21/05:00pm 14.0 11.1 4.6 53 4.4 NNW 9 13 5 7 - - 0.0
21/04:30pm 14.8 12.2 5.9 55 4.3 NW 9 15 5 8 - - 0.0
21/04:00pm 14.8 11.9 4.5 50 4.8 NNW 9 17 5 9 - - 0.0
21/03:30pm 15.3 12.1 5.2 51 4.8 NW 11 15 6 8 - - 0.0
21/03:00pm 15.3 12.9 5.2 51 4.8 NNE 7 15 4 8 - - 0.0
21/02:30pm 14.8 13.2 4.5 50 4.8 N 2 9 1 5 - - 0.0
21/02:00pm 14.6 12.2 4.3 50 4.8 N 6 11 3 6 - - 0.0
21/01:30pm 13.9 11.6 4.8 54 4.3 W 6 7 3 4 - - 0.0
21/01:00pm 13.9 11.4 4.5 53 4.4 N 7 13 4 7 - - 0.0
21/12:30pm 12.7 11.0 4.2 56 3.9 NE 2 6 1 3 - - 0.0
21/12:00pm 12.7 10.8 4.7 58 3.7 NE 4 9 2 5 - - 0.0
21/11:30am 12.6 10.5 5.8 63 3.2 NNE 6 9 3 5 - - 0.0
21/11:00am 11.9 9.7 5.5 65 3.0 NNE 6 13 3 7 - - 0.0
21/10:30am 10.2 8.3 5.0 70 2.4 ENE 4 6 2 3 - - 0.0
21/10:00am 9.7 7.3 5.1 73 2.1 ESE 7 9 4 5 - - 0.0
21/09:30am 8.5 5.7 5.1 79 1.5 ESE 9 13 5 7 - - 0.0
21/09:00am 6.4 3.8 4.2 86 0.9 ESE 7 9 4 5 - - 0.0
21/08:30am 2.6 0.9 2.0 96 0.2 CALM 0 0 0 0 - - 0.0
21/08:00am 0.3 -1.7 -0.3 96 0.2 CALM 0 0 0 0 - - 0.0
21/07:30am -1.1 -3.3 -1.8 95 0.2 CALM 0 0 0 0 - - 0.0
21/07:00am 0.1 -2.0 -0.5 96 0.2 CALM 0 0 0 0 - - 0.0
21/06:30am 0.2 -2.2 -0.5 95 0.3 SSW 2 4 1 2 - - 0.0
21/06:00am -0.2 -2.7 -0.9 95 0.2 SSW 2 4 1 2 - - 0.0
21/05:30am 0.1 -2.3 -0.6 95 0.3 SSW 2 4 1 2 - - 0.0
21/05:00am -0.8 -3.4 -1.8 93 0.3 SSW 2 2 1 1 - - 0.0
21/04:30am 0.0 -2.5 -1.0 93 0.4 SSW 2 4 1 2 - - 0.0
21/04:00am 1.4 -1.3 0.5 94 0.3 SSW 4 4 2 2 - - 0.0
21/03:30am 1.0 -1.7 0.1 94 0.3 SSW 4 6 2 3 - - 0.0
21/03:00am 0.8 -2.5 -0.2 93 0.4 SSW 7 7 4 4 - - 0.0
21/02:30am 0.1 -3.4 -1.2 91 0.5 SSW 7 9 4 5 - - 0.0
21/02:00am 1.6 -1.5 0.4 92 0.4 S 6 7 3 4 - - 0.0
21/01:30am 1.8 -1.2 0.6 92 0.5 S 6 6 3 3 - - 0.0
21/01:00am 1.4 -1.7 -0.1 90 0.5 S 6 9 3 5 - - 0.0
21/12:30am 2.6 0.0 1.0 89 0.6 S 4 6 2 3 - - 0.0
21/12:00am 3.4 0.9 1.8 89 0.6 S 4 6 2 3 - - 0.0
 
Date/Time
EST
Temp
°C
App
Temp
°C
Dew
Point
Rel
Hum
%
Delta-T
°C
Wind Press
QNH
hPa
Press
MSL
hPa
Rain
since 9 am
mm
Dir
 
Spd
km/h
Gust
km/h
Spd
kts
Gust
kts
20/11:30pm 2.7 0.1 0.8 87 0.7 S 4 6 2 3 - - 0.0

Other Formats:

Comma delimited format used in spreadsheet applications
http://www.bom.gov.au/fwo/IDV60801/IDV60801.95835.axf

JavaScript Object Notation format (JSON) in row-major order
http://www.bom.gov.au/fwo/IDV60801/IDV60801.95835.json